sensor_id;sensor_type;location;lat;lon;timestamp;pressure;altitude;pressure_sealevel;temperature;humidity
69796;BME280;57073;45.650;9.612;2023-09-12T00:03:47;99108.56;;;22.90;53.20
69796;BME280;57073;45.650;9.612;2023-09-12T00:08:47;99111.94;;;22.87;54.07
69796;BME280;57073;45.650;9.612;2023-09-12T00:13:48;99105.16;;;22.67;54.45
69796;BME280;57073;45.650;9.612;2023-09-12T00:18:48;99095.28;;;22.57;54.30
69796;BME280;57073;45.650;9.612;2023-09-12T00:23:48;99093.19;;;22.54;54.50
69796;BME280;57073;45.650;9.612;2023-09-12T00:28:49;99095.75;;;22.50;54.83
69796;BME280;57073;45.650;9.612;2023-09-12T00:33:49;99089.94;;;22.52;54.37
69796;BME280;57073;45.650;9.612;2023-09-12T00:38:49;99083.47;;;22.48;54.23
69796;BME280;57073;45.650;9.612;2023-09-12T00:43:50;99076.84;;;22.40;54.76
69796;BME280;57073;45.650;9.612;2023-09-12T00:48:51;99071.81;;;22.33;55.12
69796;BME280;57073;45.650;9.612;2023-09-12T00:53:53;99064.38;;;22.34;55.02
69796;BME280;57073;45.650;9.612;2023-09-12T00:58:55;99056.63;;;22.36;54.55
69796;BME280;57073;45.650;9.612;2023-09-12T01:03:56;99060.84;;;22.33;55.82
69796;BME280;57073;45.650;9.612;2023-09-12T01:08:57;99065.03;;;22.31;55.51
69796;BME280;57073;45.650;9.612;2023-09-12T01:13:57;99063.59;;;22.33;55.41
69796;BME280;57073;45.650;9.612;2023-09-12T01:18:57;99071.19;;;22.28;55.41
69796;BME280;57073;45.650;9.612;2023-09-12T01:29:07;99074.19;;;22.17;55.53
69796;BME280;57073;45.650;9.612;2023-09-12T01:34:10;99069.16;;;22.02;56.33
69796;BME280;57073;45.650;9.612;2023-09-12T01:39:10;99079.44;;;21.96;56.41
69796;BME280;57073;45.650;9.612;2023-09-12T01:44:11;99084.34;;;22.08;55.83
69796;BME280;57073;45.650;9.612;2023-09-12T01:49:14;99085.13;;;22.09;56.35
69796;BME280;57073;45.650;9.612;2023-09-12T01:54:16;99078.16;;;21.94;55.84
69796;BME280;57073;45.650;9.612;2023-09-12T01:59:17;99078.59;;;21.87;55.08
69796;BME280;57073;45.650;9.612;2023-09-12T02:04:17;99071.47;;;21.77;56.12
69796;BME280;57073;45.650;9.612;2023-09-12T02:09:18;99076.34;;;21.80;56.28
69796;BME280;57073;45.650;9.612;2023-09-12T02:14:18;99082.91;;;21.71;56.45
69796;BME280;57073;45.650;9.612;2023-09-12T02:19:19;99083.56;;;21.76;55.97
69796;BME280;57073;45.650;9.612;2023-09-12T02:24:19;99081.00;;;21.71;55.08
69796;BME280;57073;45.650;9.612;2023-09-12T02:29:21;99083.56;;;21.67;55.88
69796;BME280;57073;45.650;9.612;2023-09-12T02:34:21;99082.06;;;21.61;56.32
69796;BME280;57073;45.650;9.612;2023-09-12T02:39:22;99094.00;;;21.65;55.80
69796;BME280;57073;45.650;9.612;2023-09-12T02:44:22;99084.84;;;21.70;55.94
69796;BME280;57073;45.650;9.612;2023-09-12T02:49:22;99074.50;;;21.67;55.52
69796;BME280;57073;45.650;9.612;2023-09-12T02:54:23;99080.47;;;21.69;55.77
69796;BME280;57073;45.650;9.612;2023-09-12T02:59:23;99074.97;;;21.69;55.57
69796;BME280;57073;45.650;9.612;2023-09-12T03:04:25;99067.41;;;21.66;56.50
69796;BME280;57073;45.650;9.612;2023-09-12T03:09:27;99067.84;;;21.59;56.27
69796;BME280;57073;45.650;9.612;2023-09-12T03:14:28;99063.75;;;21.48;56.44
69796;BME280;57073;45.650;9.612;2023-09-12T03:19:29;99070.78;;;21.63;55.45
69796;BME280;57073;45.650;9.612;2023-09-12T03:24:30;99065.50;;;21.44;56.06
69796;BME280;57073;45.650;9.612;2023-09-12T03:29:31;99063.13;;;21.51;56.37
69796;BME280;57073;45.650;9.612;2023-09-12T03:34:31;99056.00;;;21.50;56.50
69796;BME280;57073;45.650;9.612;2023-09-12T03:39:31;99048.41;;;21.47;55.54
69796;BME280;57073;45.650;9.612;2023-09-12T03:44:32;99055.34;;;21.44;56.19
69796;BME280;57073;45.650;9.612;2023-09-12T03:49:32;99053.53;;;21.40;55.90
69796;BME280;57073;45.650;9.612;2023-09-12T03:54:33;99047.31;;;21.25;57.01
69796;BME280;57073;45.650;9.612;2023-09-12T03:59:33;99057.78;;;21.23;56.81
69796;BME280;57073;45.650;9.612;2023-09-12T04:04:33;99056.81;;;21.19;56.20
69796;BME280;57073;45.650;9.612;2023-09-12T04:09:34;99055.69;;;21.20;56.62
69796;BME280;57073;45.650;9.612;2023-09-12T04:14:35;99067.81;;;21.28;55.68
69796;BME280;57073;45.650;9.612;2023-09-12T04:19:36;99073.31;;;21.28;56.67
69796;BME280;57073;45.650;9.612;2023-09-12T04:24:36;99077.81;;;21.24;56.73
69796;BME280;57073;45.650;9.612;2023-09-12T04:29:36;99079.72;;;21.23;56.04
69796;BME280;57073;45.650;9.612;2023-09-12T04:34:37;99084.53;;;21.18;56.37
69796;BME280;57073;45.650;9.612;2023-09-12T04:39:37;99085.34;;;21.18;56.27
69796;BME280;57073;45.650;9.612;2023-09-12T04:44:39;99094.59;;;21.31;55.71
69796;BME280;57073;45.650;9.612;2023-09-12T04:49:40;99098.72;;;21.20;56.34
69796;BME280;57073;45.650;9.612;2023-09-12T04:54:40;99093.00;;;21.07;57.19
69796;BME280;57073;45.650;9.612;2023-09-12T04:59:41;99098.91;;;21.23;56.15
69796;BME280;57073;45.650;9.612;2023-09-12T05:04:41;99104.88;;;21.17;55.89
69796;BME280;57073;45.650;9.612;2023-09-12T05:09:41;99110.66;;;21.15;55.96
69796;BME280;57073;45.650;9.612;2023-09-12T05:14:42;99111.69;;;21.28;56.41
69796;BME280;57073;45.650;9.612;2023-09-12T05:19:43;99114.44;;;21.28;55.66
69796;BME280;57073;45.650;9.612;2023-09-12T05:24:43;99109.94;;;21.32;55.20
69796;BME280;57073;45.650;9.612;2023-09-12T05:29:44;99118.66;;;21.34;54.54
69796;BME280;57073;45.650;9.612;2023-09-12T05:34:44;99108.75;;;21.47;54.44
69796;BME280;57073;45.650;9.612;2023-09-12T05:39:45;99112.38;;;21.56;54.93
69796;BME280;57073;45.650;9.612;2023-09-12T05:44:47;99121.91;;;21.59;54.75
69796;BME280;57073;45.650;9.612;2023-09-12T05:49:49;99131.19;;;21.72;53.86
69796;BME280;57073;45.650;9.612;2023-09-12T05:54:50;99142.16;;;21.72;54.05
69796;BME280;57073;45.650;9.612;2023-09-12T05:59:50;99143.41;;;21.65;53.67
69796;BME280;57073;45.650;9.612;2023-09-12T06:04:51;99133.81;;;21.77;53.54
69796;BME280;57073;45.650;9.612;2023-09-12T06:09:51;99145.09;;;21.75;53.69
69796;BME280;57073;45.650;9.612;2023-09-12T06:14:51;99141.91;;;21.91;54.69
69796;BME280;57073;45.650;9.612;2023-09-12T06:19:54;99148.59;;;22.07;53.29
69796;BME280;57073;45.650;9.612;2023-09-12T06:24:55;99159.72;;;21.93;53.50
69796;BME280;57073;45.650;9.612;2023-09-12T06:29:56;99146.69;;;22.08;53.23
69796;BME280;57073;45.650;9.612;2023-09-12T06:34:57;99158.38;;;22.22;52.41
69796;BME280;57073;45.650;9.612;2023-09-12T06:39:57;99164.41;;;22.33;52.83
69796;BME280;57073;45.650;9.612;2023-09-12T06:44:57;99163.78;;;22.44;52.38
69796;BME280;57073;45.650;9.612;2023-09-12T06:49:58;99169.47;;;22.57;52.54
69796;BME280;57073;45.650;9.612;2023-09-12T06:54:58;99173.25;;;22.78;52.09
69796;BME280;57073;45.650;9.612;2023-09-12T06:59:58;99174.56;;;23.25;50.62
69796;BME280;57073;45.650;9.612;2023-09-12T07:04:59;99180.69;;;23.56;50.40
69796;BME280;57073;45.650;9.612;2023-09-12T07:09:59;99179.06;;;23.64;48.99
69796;BME280;57073;45.650;9.612;2023-09-12T07:15:00;99177.41;;;23.81;49.37
69796;BME280;57073;45.650;9.612;2023-09-12T07:20:01;99180.47;;;23.88;48.43
69796;BME280;57073;45.650;9.612;2023-09-12T07:25:01;99183.50;;;24.04;48.90
69796;BME280;57073;45.650;9.612;2023-09-12T07:30:02;99186.88;;;24.09;48.69
69796;BME280;57073;45.650;9.612;2023-09-12T07:35:03;99200.28;;;24.28;48.16
69796;BME280;57073;45.650;9.612;2023-09-12T07:40:03;99197.91;;;24.78;47.73
69796;BME280;57073;45.650;9.612;2023-09-12T07:45:10;99191.13;;;25.38;46.89
69796;BME280;57073;45.650;9.612;2023-09-12T07:50:10;99191.28;;;25.75;45.79
69796;BME280;57073;45.650;9.612;2023-09-12T07:55:10;99187.69;;;26.08;45.29
69796;BME280;57073;45.650;9.612;2023-09-12T08:00:11;99199.78;;;26.53;44.32
69796;BME280;57073;45.650;9.612;2023-09-12T08:05:12;99213.97;;;26.51;44.04
69796;BME280;57073;45.650;9.612;2023-09-12T08:10:13;99201.41;;;26.78;43.62
69796;BME280;57073;45.650;9.612;2023-09-12T08:15:13;99200.03;;;26.48;42.57
69796;BME280;57073;45.650;9.612;2023-09-12T08:20:13;99199.22;;;26.84;42.78
69796;BME280;57073;45.650;9.612;2023-09-12T08:25:14;99204.47;;;27.01;43.18
69796;BME280;57073;45.650;9.612;2023-09-12T08:30:15;99211.56;;;27.27;42.16
69796;BME280;57073;45.650;9.612;2023-09-12T08:35:16;99203.59;;;27.38;42.49
69796;BME280;57073;45.650;9.612;2023-09-12T08:40:16;99200.72;;;27.34;42.88
69796;BME280;57073;45.650;9.612;2023-09-12T08:45:18;99202.44;;;27.83;42.59
69796;BME280;57073;45.650;9.612;2023-09-12T08:50:20;99202.00;;;27.81;42.19
69796;BME280;57073;45.650;9.612;2023-09-12T08:55:21;99201.16;;;27.65;40.61
69796;BME280;57073;45.650;9.612;2023-09-12T09:00:22;99207.53;;;27.81;41.41
69796;BME280;57073;45.650;9.612;2023-09-12T09:05:23;99207.50;;;28.09;42.03
69796;BME280;57073;45.650;9.612;2023-09-12T09:10:24;99203.66;;;27.98;40.42
69796;BME280;57073;45.650;9.612;2023-09-12T09:15:28;99208.84;;;28.15;40.95
69796;BME280;57073;45.650;9.612;2023-09-12T09:20:31;99207.34;;;28.50;40.88
69796;BME280;57073;45.650;9.612;2023-09-12T09:25:35;99199.19;;;27.93;40.26
69796;BME280;57073;45.650;9.612;2023-09-12T09:30:42;99203.56;;;28.42;40.66
69796;BME280;57073;45.650;9.612;2023-09-12T09:35:45;99203.94;;;28.25;40.65
69796;BME280;57073;45.650;9.612;2023-09-12T09:40:46;99210.19;;;28.38;40.29
69796;BME280;57073;45.650;9.612;2023-09-12T09:45:46;99206.56;;;28.69;40.63
69796;BME280;57073;45.650;9.612;2023-09-12T09:50:47;99192.66;;;28.33;39.50
69796;BME280;57073;45.650;9.612;2023-09-12T09:55:48;99196.94;;;28.63;40.37
69796;BME280;57073;45.650;9.612;2023-09-12T10:00:48;99191.38;;;28.63;40.83
69796;BME280;57073;45.650;9.612;2023-09-12T10:05:50;99193.34;;;28.46;39.91
69796;BME280;57073;45.650;9.612;2023-09-12T10:10:53;99188.00;;;28.53;39.90
69796;BME280;57073;45.650;9.612;2023-09-12T10:15:55;99184.09;;;28.55;40.13
69796;BME280;57073;45.650;9.612;2023-09-12T10:21:04;99190.13;;;28.44;40.26
69796;BME280;57073;45.650;9.612;2023-09-12T10:26:11;99184.25;;;28.46;40.78
69796;BME280;57073;45.650;9.612;2023-09-12T10:31:12;99187.38;;;28.28;39.63
69796;BME280;57073;45.650;9.612;2023-09-12T10:36:13;99192.13;;;27.96;41.09
69796;BME280;57073;45.650;9.612;2023-09-12T10:41:15;99190.88;;;28.09;41.36
69796;BME280;57073;45.650;9.612;2023-09-12T10:46:16;99186.22;;;28.13;40.63
69796;BME280;57073;45.650;9.612;2023-09-12T10:51:18;99178.88;;;28.05;41.13
69796;BME280;57073;45.650;9.612;2023-09-12T10:56:20;99186.06;;;28.22;41.67
69796;BME280;57073;45.650;9.612;2023-09-12T11:01:24;99180.84;;;28.37;40.90
69796;BME280;57073;45.650;9.612;2023-09-12T11:06:29;99178.25;;;28.28;40.11
69796;BME280;57073;45.650;9.612;2023-09-12T11:11:30;99168.72;;;28.09;40.86
69796;BME280;57073;45.650;9.612;2023-09-12T11:16:31;99165.19;;;28.28;40.97
69796;BME280;57073;45.650;9.612;2023-09-12T11:21:32;99152.78;;;28.06;40.43
69796;BME280;57073;45.650;9.612;2023-09-12T11:26:33;99147.44;;;28.13;41.34
69796;BME280;57073;45.650;9.612;2023-09-12T11:31:33;99146.94;;;28.27;40.36
69796;BME280;57073;45.650;9.612;2023-09-12T11:36:39;99145.16;;;28.35;39.46
69796;BME280;57073;45.650;9.612;2023-09-12T11:41:41;99138.47;;;28.20;38.96
69796;BME280;57073;45.650;9.612;2023-09-12T11:46:42;99139.09;;;28.29;39.67
69796;BME280;57073;45.650;9.612;2023-09-12T11:51:50;99125.16;;;28.26;39.48
69796;BME280;57073;45.650;9.612;2023-09-12T11:56:51;99122.66;;;28.21;39.83
69796;BME280;57073;45.650;9.612;2023-09-12T12:01:57;99118.88;;;28.29;39.80
69796;BME280;57073;45.650;9.612;2023-09-12T12:06:58;99114.97;;;28.14;39.08
69796;BME280;57073;45.650;9.612;2023-09-12T12:12:09;99108.38;;;28.03;39.34
69796;BME280;57073;45.650;9.612;2023-09-12T12:17:11;99103.88;;;28.14;39.56
69796;BME280;57073;45.650;9.612;2023-09-12T12:22:12;99108.44;;;28.22;39.11
69796;BME280;57073;45.650;9.612;2023-09-12T12:27:16;99098.16;;;28.07;39.71
69796;BME280;57073;45.650;9.612;2023-09-12T12:32:16;99085.50;;;28.25;38.59
69796;BME280;57073;45.650;9.612;2023-09-12T12:37:16;99093.22;;;28.16;37.79
69796;BME280;57073;45.650;9.612;2023-09-12T12:42:17;99088.50;;;28.17;38.59
69796;BME280;57073;45.650;9.612;2023-09-12T12:47:21;99086.00;;;28.11;38.89
69796;BME280;57073;45.650;9.612;2023-09-12T12:52:23;99078.47;;;28.12;38.09
69796;BME280;57073;45.650;9.612;2023-09-12T12:57:24;99080.03;;;28.09;38.53
69796;BME280;57073;45.650;9.612;2023-09-12T13:02:24;99071.81;;;27.97;38.35
69796;BME280;57073;45.650;9.612;2023-09-12T13:07:24;99064.59;;;28.28;38.74
69796;BME280;57073;45.650;9.612;2023-09-12T13:12:25;99063.50;;;28.32;37.71
69796;BME280;57073;45.650;9.612;2023-09-12T13:17:25;99061.13;;;28.15;37.52
69796;BME280;57073;45.650;9.612;2023-09-12T13:22:25;99055.00;;;28.25;37.26
69796;BME280;57073;45.650;9.612;2023-09-12T13:27:26;99048.75;;;28.28;37.31
69796;BME280;57073;45.650;9.612;2023-09-12T13:32:26;99045.72;;;28.33;36.75
69796;BME280;57073;45.650;9.612;2023-09-12T13:37:26;99042.94;;;28.33;36.89
69796;BME280;57073;45.650;9.612;2023-09-12T13:42:27;99040.41;;;28.44;37.44
69796;BME280;57073;45.650;9.612;2023-09-12T13:47:31;99049.00;;;28.39;36.67
69796;BME280;57073;45.650;9.612;2023-09-12T13:52:32;99040.44;;;28.28;35.97
69796;BME280;57073;45.650;9.612;2023-09-12T13:57:33;99039.38;;;28.33;36.47
69796;BME280;57073;45.650;9.612;2023-09-12T14:02:33;99044.06;;;28.13;36.15
69796;BME280;57073;45.650;9.612;2023-09-12T14:07:33;99036.88;;;28.28;36.12
69796;BME280;57073;45.650;9.612;2023-09-12T14:12:35;99031.16;;;28.21;35.86
69796;BME280;57073;45.650;9.612;2023-09-12T14:17:35;99038.06;;;28.11;35.48
69796;BME280;57073;45.650;9.612;2023-09-12T14:22:36;99035.09;;;28.20;36.02
69796;BME280;57073;45.650;9.612;2023-09-12T14:27:37;99039.50;;;28.21;34.92
69796;BME280;57073;45.650;9.612;2023-09-12T14:32:37;99036.47;;;28.10;35.00
69796;BME280;57073;45.650;9.612;2023-09-12T14:37:37;99036.63;;;28.17;35.39
69796;BME280;57073;45.650;9.612;2023-09-12T14:42:38;99034.22;;;28.15;35.85
69796;BME280;57073;45.650;9.612;2023-09-12T14:47:38;99033.78;;;28.13;34.64
69796;BME280;57073;45.650;9.612;2023-09-12T14:52:38;99025.47;;;28.13;35.15
69796;BME280;57073;45.650;9.612;2023-09-12T14:57:39;99032.16;;;28.12;34.95
69796;BME280;57073;45.650;9.612;2023-09-12T15:02:40;99032.16;;;28.12;34.88
69796;BME280;57073;45.650;9.612;2023-09-12T15:07:42;99015.97;;;28.14;35.42
69796;BME280;57073;45.650;9.612;2023-09-12T15:12:43;99015.94;;;27.95;34.64
69796;BME280;57073;45.650;9.612;2023-09-12T15:17:43;99006.06;;;28.13;35.85
69796;BME280;57073;45.650;9.612;2023-09-12T15:22:43;99010.56;;;28.02;35.03
69796;BME280;57073;45.650;9.612;2023-09-12T15:27:44;99014.28;;;28.10;34.75
69796;BME280;57073;45.650;9.612;2023-09-12T15:32:44;99018.31;;;28.12;34.92
69796;BME280;57073;45.650;9.612;2023-09-12T15:37:45;99019.91;;;28.13;34.97
69796;BME280;57073;45.650;9.612;2023-09-12T15:42:45;99011.69;;;28.17;34.84
69796;BME280;57073;45.650;9.612;2023-09-12T15:47:46;99013.34;;;28.22;34.44
69796;BME280;57073;45.650;9.612;2023-09-12T15:52:47;99015.50;;;28.28;35.46
69796;BME280;57073;45.650;9.612;2023-09-12T15:57:47;99009.06;;;28.24;35.18
69796;BME280;57073;45.650;9.612;2023-09-12T16:02:47;99017.81;;;28.26;35.17
69796;BME280;57073;45.650;9.612;2023-09-12T16:07:51;99017.59;;;28.15;34.43
69796;BME280;57073;45.650;9.612;2023-09-12T16:12:51;99010.41;;;27.95;34.22
69796;BME280;57073;45.650;9.612;2023-09-12T16:17:51;99015.50;;;27.93;34.19
69796;BME280;57073;45.650;9.612;2023-09-12T16:22:52;99015.31;;;27.86;34.32
69796;BME280;57073;45.650;9.612;2023-09-12T16:27:52;99012.66;;;27.73;33.63
69796;BME280;57073;45.650;9.612;2023-09-12T16:32:53;99003.72;;;27.64;34.56
69796;BME280;57073;45.650;9.612;2023-09-12T16:37:53;99004.44;;;27.61;34.15
69796;BME280;57073;45.650;9.612;2023-09-12T16:42:54;98994.06;;;27.58;34.47
69796;BME280;57073;45.650;9.612;2023-09-12T16:47:54;98994.88;;;27.58;35.04
69796;BME280;57073;45.650;9.612;2023-09-12T16:52:55;98996.38;;;27.56;34.39
69796;BME280;57073;45.650;9.612;2023-09-12T16:57:55;98996.38;;;27.56;35.14
69796;BME280;57073;45.650;9.612;2023-09-12T17:02:56;98992.03;;;27.55;35.24
69796;BME280;57073;45.650;9.612;2023-09-12T17:07:56;98993.88;;;27.51;36.18
69796;BME280;57073;45.650;9.612;2023-09-12T17:12:56;98994.88;;;27.43;36.44
69796;BME280;57073;45.650;9.612;2023-09-12T17:17:57;98999.81;;;27.33;35.97
69796;BME280;57073;45.650;9.612;2023-09-12T17:22:57;98997.78;;;27.18;35.55
69796;BME280;57073;45.650;9.612;2023-09-12T17:27:57;99000.25;;;27.07;35.45
69796;BME280;57073;45.650;9.612;2023-09-12T17:32:59;99001.59;;;26.97;36.83
69796;BME280;57073;45.650;9.612;2023-09-12T17:38:00;99007.63;;;26.87;36.76
69796;BME280;57073;45.650;9.612;2023-09-12T17:43:00;99010.09;;;26.76;36.42
69796;BME280;57073;45.650;9.612;2023-09-12T17:48:01;99011.75;;;26.65;36.92
69796;BME280;57073;45.650;9.612;2023-09-12T17:53:01;99025.03;;;26.59;37.09
69796;BME280;57073;45.650;9.612;2023-09-12T17:58:01;99038.84;;;26.59;38.32
69796;BME280;57073;45.650;9.612;2023-09-12T18:03:02;99037.56;;;26.57;38.33
69796;BME280;57073;45.650;9.612;2023-09-12T18:08:03;99017.44;;;26.44;37.06
69796;BME280;57073;45.650;9.612;2023-09-12T18:13:03;99017.03;;;26.30;38.02
69796;BME280;57073;45.650;9.612;2023-09-12T18:18:04;99037.97;;;26.43;38.51
69796;BME280;57073;45.650;9.612;2023-09-12T18:23:04;99052.25;;;26.45;39.54
69796;BME280;57073;45.650;9.612;2023-09-12T18:28:05;99044.19;;;26.40;39.97
69796;BME280;57073;45.650;9.612;2023-09-12T18:33:06;99045.84;;;26.29;40.85
69796;BME280;57073;45.650;9.612;2023-09-12T18:38:06;99063.78;;;26.22;41.77
69796;BME280;57073;45.650;9.612;2023-09-12T18:43:06;99076.34;;;26.20;43.11
69796;BME280;57073;45.650;9.612;2023-09-12T18:48:07;99081.41;;;26.05;43.33
69796;BME280;57073;45.650;9.612;2023-09-12T18:53:07;99085.91;;;25.98;42.93
69796;BME280;57073;45.650;9.612;2023-09-12T18:58:15;99091.19;;;25.78;43.99
69796;BME280;57073;45.650;9.612;2023-09-12T19:03:16;99096.94;;;25.73;44.23
69796;BME280;57073;45.650;9.612;2023-09-12T19:08:17;99098.19;;;25.63;44.53
69796;BME280;57073;45.650;9.612;2023-09-12T19:13:18;99099.78;;;25.64;43.78
69796;BME280;57073;45.650;9.612;2023-09-12T19:18:18;99101.16;;;25.58;44.55
69796;BME280;57073;45.650;9.612;2023-09-12T19:23:18;99106.19;;;25.10;44.81
69796;BME280;57073;45.650;9.612;2023-09-12T19:28:19;99098.28;;;25.21;44.11
69796;BME280;57073;45.650;9.612;2023-09-12T19:33:19;99114.50;;;25.23;45.66
69796;BME280;57073;45.650;9.612;2023-09-12T19:38:19;99111.25;;;25.21;45.38
69796;BME280;57073;45.650;9.612;2023-09-12T19:43:20;99121.78;;;25.06;45.49
69796;BME280;57073;45.650;9.612;2023-09-12T19:48:21;99130.06;;;25.06;46.56
69796;BME280;57073;45.650;9.612;2023-09-12T19:53:21;99141.66;;;25.00;46.17
69796;BME280;57073;45.650;9.612;2023-09-12T19:58:22;99143.50;;;25.08;45.50
69796;BME280;57073;45.650;9.612;2023-09-12T20:03:22;99132.22;;;25.01;46.75
69796;BME280;57073;45.650;9.612;2023-09-12T20:08:23;99139.75;;;25.13;45.76
69796;BME280;57073;45.650;9.612;2023-09-12T20:13:23;99151.59;;;25.13;45.95
69796;BME280;57073;45.650;9.612;2023-09-12T20:18:23;99147.97;;;25.00;46.30
69796;BME280;57073;45.650;9.612;2023-09-12T20:23:24;99154.13;;;24.76;47.54
69796;BME280;57073;45.650;9.612;2023-09-12T20:28:25;99158.28;;;24.61;47.23
69796;BME280;57073;45.650;9.612;2023-09-12T20:33:26;99173.72;;;24.53;47.39
69796;BME280;57073;45.650;9.612;2023-09-12T20:38:27;99178.66;;;24.39;48.02
69796;BME280;57073;45.650;9.612;2023-09-12T20:43:27;99182.63;;;24.29;48.65
69796;BME280;57073;45.650;9.612;2023-09-12T20:48:29;99182.94;;;24.19;48.70
69796;BME280;57073;45.650;9.612;2023-09-12T20:53:31;99205.84;;;24.11;49.31
69796;BME280;57073;45.650;9.612;2023-09-12T20:58:32;99198.09;;;23.95;50.65
69796;BME280;57073;45.650;9.612;2023-09-12T21:03:32;99200.38;;;23.93;50.43
69796;BME280;57073;45.650;9.612;2023-09-12T21:08:33;99194.88;;;23.85;48.35
69796;BME280;57073;45.650;9.612;2023-09-12T21:13:33;99204.16;;;23.80;47.40
69796;BME280;57073;45.650;9.612;2023-09-12T21:18:33;99203.03;;;23.72;46.02
69796;BME280;57073;45.650;9.612;2023-09-12T21:23:34;99204.00;;;23.68;46.65
69796;BME280;57073;45.650;9.612;2023-09-12T21:28:34;99208.38;;;23.60;46.71
69796;BME280;57073;45.650;9.612;2023-09-12T21:33:34;99203.34;;;23.53;46.60
69796;BME280;57073;45.650;9.612;2023-09-12T21:38:35;99210.84;;;23.62;46.55
69796;BME280;57073;45.650;9.612;2023-09-12T21:43:36;99193.97;;;23.54;45.81
69796;BME280;57073;45.650;9.612;2023-09-12T21:48:36;99194.78;;;23.46;45.95
69796;BME280;57073;45.650;9.612;2023-09-12T21:53:36;99204.81;;;23.42;44.95
69796;BME280;57073;45.650;9.612;2023-09-12T21:58:37;99189.28;;;23.46;44.75
69796;BME280;57073;45.650;9.612;2023-09-12T22:03:37;99180.69;;;23.39;46.40
69796;BME280;57073;45.650;9.612;2023-09-12T22:08:37;99176.84;;;23.31;47.75
69796;BME280;57073;45.650;9.612;2023-09-12T22:13:38;99176.50;;;23.33;49.10
69796;BME280;57073;45.650;9.612;2023-09-12T22:18:38;99182.66;;;23.47;48.78
69796;BME280;57073;45.650;9.612;2023-09-12T22:23:38;99187.47;;;23.50;49.20
69796;BME280;57073;45.650;9.612;2023-09-12T22:28:39;99180.69;;;23.39;50.67
69796;BME280;57073;45.650;9.612;2023-09-12T22:33:40;99183.63;;;23.43;50.48
69796;BME280;57073;45.650;9.612;2023-09-12T22:38:40;99181.50;;;23.39;49.39
69796;BME280;57073;45.650;9.612;2023-09-12T22:43:41;99178.75;;;23.39;50.56
69796;BME280;57073;45.650;9.612;2023-09-12T22:48:41;99194.63;;;23.34;51.10
69796;BME280;57073;45.650;9.612;2023-09-12T22:53:41;99203.69;;;23.26;50.97
69796;BME280;57073;45.650;9.612;2023-09-12T22:58:42;99197.88;;;23.18;50.15
69796;BME280;57073;45.650;9.612;2023-09-12T23:03:42;99213.88;;;23.08;50.89
69796;BME280;57073;45.650;9.612;2023-09-12T23:08:43;99214.53;;;23.05;51.58
69796;BME280;57073;45.650;9.612;2023-09-12T23:13:43;99211.75;;;22.96;52.01
69796;BME280;57073;45.650;9.612;2023-09-12T23:18:43;99211.22;;;22.85;51.92
69796;BME280;57073;45.650;9.612;2023-09-12T23:23:44;99204.75;;;22.81;51.36
69796;BME280;57073;45.650;9.612;2023-09-12T23:28:44;99204.28;;;22.88;51.83
69796;BME280;57073;45.650;9.612;2023-09-12T23:33:44;99190.59;;;22.96;51.58
69796;BME280;57073;45.650;9.612;2023-09-12T23:38:45;99199.75;;;22.92;52.42
69796;BME280;57073;45.650;9.612;2023-09-12T23:43:45;99203.50;;;22.96;52.39
69796;BME280;57073;45.650;9.612;2023-09-12T23:48:46;99195.41;;;22.91;52.26
69796;BME280;57073;45.650;9.612;2023-09-12T23:53:46;99189.75;;;22.87;51.98
69796;BME280;57073;45.650;9.612;2023-09-12T23:58:46;99187.69;;;22.93;51.75
